Buffalo Lake, Minnesota
Current Conditions -  °F | °C
As of 10:52 AM on Saturday 22 Nov 2014 (Local Time) from KHCD Reporting Station
Moderate Fog Moderate Fog  
Wind Chill: 27°   Ceiling: 200
Heat Index: 34°   Visibility: 0.5mi
Dew Point: 34°   Wind: 9mph
Humidity: 100%   Direction: 170°S
Pressure: 29.72"   Gusts: NA
Location:  44.74°N, 94.62°W
Report Text: KHCD 221652Z AUTO 17008KT 1/2SM FG OVC002 01/01 A2972 RMK AO2 P0001 T00110012
Loading
Personal Weather Stations






























Interactive Weather Map New forecast layout! Learn more

10-Day Weather Forecast

Advertisements
Track Severe Weather on mobile